Aktualne dane pomiarowe

Uwaga, wersja testowa! Automatyczne pobieranie danych za pomocą narzędzi lub skryptów to umożliwiających jest zabronione.

Dane meteo z obszaru Polski uzyskane na podstawie depesz SYNOP pobieranych co godzinę z NWS. Najedź myszką na symbol przedstawiony w tabeli, aby uzyskać informacje co do jego znaczenia. Prosimy pamiętać, że to testowa wersja strony, która jeszcze nie jest ukończona. Stworzono również jest krótki FAQ dotyczący korzystania z tej podstrony Anomalie temperatury w chwili obecnej odniesione są do okresu referencyjnego 1951-2016. Okres ten będzie później zmieniony na 1981-2010. Kliknij ikonę aby pobrać plik CSV. Kliknij ikonę aby wygenerować mapę synoptyczną dla danego terminu.

Wybierz Datę:    

        

Cewice (12136)

Dane terminowe dla wybranej stacji. Kliknij datę, aby otrzymać dane z tego terminu dla wszystkich stacji.

TemperaturaZachmurzenieWiatrCiśnienieOpadyPogoda
 Data t td wb tx tn tg rh  Nt Nl Cl Cm Ch ws wd g1 g2 wx mslp ppp ch 24h 12h t ww ww w1 w2  
2019-07-12 23:00:00 9.9 9.6 9.6--- 9810.0wx-wx1---11011.6 993.0 0.4---------
2019-07-12 22:00:00 11.1 10.5 10.6--- 9620.0wx-wx1---11011.5 993.0 0.7---------
2019-07-12 21:00:00 11.6 10.3 10.7--- 9230.0wx-2wx--21011.4 992.8 1.0---------
2019-07-12 20:00:00 13.0 10.9 11.6--- 8740.0wx-wx2wx--21011.0 992.6 1.1---------
2019-07-12 19:00:00 15.7 11.5 13.0--- 7640.0wx-wx3wx--31010.5 992.3 0.5---------
2019-07-12 18:00:00 18.3 12.7 14.7 24.2 12.6- 7050.0wxwxwx4wx--41009.9 991.8 -0.1- 0.012------
2019-07-12 17:00:00 20.4 13.9 16.2--- 6640.0wx-2wx--21009.4 991.5 -0.2---------
2019-07-12 16:00:00 20.4 14.5 16.5--- 6940.0wxwxwxwx4wx--41009.6 991.7 0.0---------
2019-07-12 15:00:00 21.0 15.2 17.1--- 7040.0wxwxwx2wx--21009.8 991.9 0.0---------
2019-07-12 14:00:00 23.2 11.2 16.0--- 4755.0wx-wx4wx--41009.4 991.6 -0.7---------
2019-07-12 13:00:00 21.8 12.7 16.1--- 5665.0wxwxwx3wx--31009.6 991.7 -0.6---------
2019-07-12 12:00:00 22.9 9.2 14.9--- 4240.0wx-3wx--31009.7 991.9 -0.5- 0.06------
2019-07-12 11:00:00 22.2 7.6 14.0--- 3960.0wxwxwx3wx--31010.1 992.3 0.1---------
2019-07-12 10:00:00 22.4 10.8 15.5--- 4855.0wx-wx2wx--21010.2 992.3 -0.3---------
2019-07-12 09:00:00 20.6 9.1 13.9--- 4855.0wx-wx2---21010.4 992.5 0.0---------
2019-07-12 08:00:00 19.1 9.6 13.5--- 5455.0wx-wx2wx--21010.4 992.4 -0.1---------
2019-07-12 07:00:00 16.7 11.6 13.4--- 7240.0wx-wx2wx--21010.8 992.6 0.0---------
2019-07-12 06:00:00 12.6 12.0 12.1 18.6 8.0- 9610.0wxwxwx1---11010.9 992.5 0.0 0.0 0.012wx-w2--
2019-07-12 05:00:00 9.5 9.5 9.4--- 1000.6wxwxwxwx1---11011.2 992.6 -0.1---wx-w1w2--
2019-07-12 04:00:00 8.4 8.1 8.1--- 9820.0wx-0---01011.3 992.6 -0.3---wx---
2019-07-12 03:00:00 8.9 8.5 8.6--- 9720.0wx-wx0---01011.2 992.6 -0.6---------
2019-07-12 02:00:00 9.1 8.5 8.6--- 9620.0wx-wx0---01011.4 992.7 -0.6---------
2019-07-12 01:00:00 9.3 8.7 8.8--- 9630.0wx-wx0---01011.6 992.9 -0.5---------
2019-07-12 00:00:00 8.4 7.8 7.9--- 9630.0wx-wx0---01011.9 993.2 -0.4- 0.06------
2019-07-11 23:00:00 9.0 8.6 8.7--- 9720.0wx-wx0---01012.0 993.3 -0.3---------
2019-07-11 22:00:00 9.6 8.6 8.9--- 9330.0wx-wx1---11012.0 993.4 0.1---------
2019-07-11 21:00:00 11.0 9.3 9.8--- 8940.0wx-wx1---11012.1 993.5 0.2---------
2019-07-11 20:00:00 12.4 10.6 11.2--- 8919.0wx-0---01012.1 993.6 0.2---------
2019-07-11 19:00:00 15.5 10.6 12.4--- 7360.0wx-1---11011.7 993.5 0.0---------
2019-07-11 18:00:00 18.6 8.8 12.9 21.8 14.7- 5360.0wx-2wx--21011.3 993.3 -0.1- 0.012------
2019-07-11 17:00:00 19.6 8.8 13.3--- 5065.0wx-3wx--31011.4 993.4 -0.2---------
2019-07-11 16:00:00 20.4 7.7 13.2--- 4455.0wx-4wx--41011.4 993.5 -0.2---------
2019-07-11 15:00:00 20.8 8.0 13.5--- 4455.0wxwxwx4wx--41011.3 993.4 -0.3---------
2019-07-11 14:00:00 20.8 7.8 13.4--- 4360.0wx-5wx--51011.5 993.5 -0.2---------
2019-07-11 13:00:00 21.3 8.6 14.0--- 4465.0wxwxwxwx5wx--51011.5 993.6 -0.3---------
2019-07-11 12:00:00 21.5 9.1 14.3--- 4565.0wxwxwx4wx--41011.5 993.7 -0.6- 0.06------
2019-07-11 11:00:00 19.5 8.0 12.9--- 4765.0wxwxwx3wx--31011.8 993.8 -0.1---------
2019-07-11 10:00:00 20.0 8.7 13.5--- 4860.0wxwxwx4wx--41011.9 994.0 0.1---------
2019-07-11 09:00:00 19.1 9.3 13.3--- 5365.0wxwxwx4wx--41012.3 994.2 0.4---------
2019-07-11 08:00:00 17.4 9.8 12.8--- 6150.0wxwxwx4wx--41012.1 993.9 0.1---------
2019-07-11 07:00:00 17.0 11.6 13.5--- 7155.0wxwxwx4wx--41012.1 993.9 0.1---------
2019-07-11 06:00:00 14.6 10.7 12.1 14.7 3.9- 7765.0wx-2wx--21012.2 993.8 0.1- 0.012------
2019-07-11 05:00:00 11.1 9.9 10.2--- 9230.0wx-2wx--21012.4 993.8 0.0---------
2019-07-11 04:00:00 6.6 5.9 6.1--- 9530.0wx-0---01012.7 993.8 -0.3---------
2019-07-11 03:00:00 4.4 3.9 4.0--- 9720.0wx-1---11012.8 993.8 -0.4---------
3.3 ms

 

Print Friendly, PDF & Email